createdAt,value
2018-11-05T00:03:34.396Z,60.10
2018-11-05T00:08:37.585Z,59.60
2018-11-05T00:13:40.766Z,60.50
2018-11-05T00:18:43.953Z,59.60
2018-11-05T00:23:47.148Z,59.40
2018-11-05T00:28:50.344Z,59.60
2018-11-05T00:33:53.525Z,59.50
2018-11-05T00:38:56.712Z,59.50
2018-11-05T00:43:59.866Z,59.30
2018-11-05T00:49:03.308Z,59.50
2018-11-05T00:54:06.532Z,59.30
2018-11-05T00:59:09.739Z,59.60
2018-11-05T01:04:12.921Z,59.20
2018-11-05T01:09:16.116Z,59.20
2018-11-05T01:14:19.283Z,58.70
2018-11-05T01:19:22.452Z,59.40
2018-11-05T01:24:25.623Z,59.20
2018-11-05T01:29:28.788Z,59.30
2018-11-05T01:34:31.939Z,59.30
2018-11-05T01:39:35.139Z,59.40
2018-11-05T01:44:38.427Z,59.20
2018-11-05T01:49:41.635Z,59.30
2018-11-05T01:54:44.911Z,59.00
2018-11-05T01:59:48.225Z,59.20
2018-11-05T02:04:51.473Z,59.10
2018-11-05T02:09:54.696Z,59.10
2018-11-05T02:14:57.955Z,58.90
2018-11-05T02:20:01.147Z,59.00
2018-11-05T02:25:04.689Z,59.00
2018-11-05T02:30:11.972Z,58.90
2018-11-05T02:35:16.120Z,59.10
2018-11-05T02:40:20.588Z,58.90
2018-11-05T02:45:23.768Z,59.10
2018-11-05T02:50:26.952Z,59.00
2018-11-05T02:55:30.155Z,58.70
2018-11-05T03:00:33.412Z,59.00
2018-11-05T03:05:36.620Z,58.90
2018-11-05T03:10:39.816Z,58.90
2018-11-05T03:15:43.047Z,58.80
2018-11-05T03:20:46.272Z,58.80
2018-11-05T03:25:49.497Z,58.80
2018-11-05T03:30:52.716Z,59.00
2018-11-05T03:35:55.977Z,59.00
2018-11-05T03:40:59.180Z,59.00
2018-11-05T03:46:02.378Z,58.70
2018-11-05T03:51:05.585Z,58.70
2018-11-05T03:56:08.891Z,59.00
2018-11-05T04:01:12.022Z,58.80
2018-11-05T04:06:15.272Z,58.90
2018-11-05T04:11:18.436Z,58.90
2018-11-05T04:16:21.641Z,58.90
2018-11-05T04:21:29.062Z,58.80
2018-11-05T04:26:32.279Z,59.00
2018-11-05T04:31:35.479Z,58.70
2018-11-05T04:36:38.683Z,58.80
2018-11-05T04:41:41.915Z,58.80
2018-11-05T04:46:45.112Z,58.90
2018-11-05T04:51:48.312Z,59.00
2018-11-05T04:56:51.499Z,58.70
2018-11-05T05:01:54.723Z,58.90
2018-11-05T05:06:57.903Z,58.90
2018-11-05T05:12:01.094Z,58.90
2018-11-05T05:17:04.306Z,58.40
2018-11-05T05:22:07.488Z,58.70
2018-11-05T05:27:10.721Z,58.90
2018-11-05T05:32:13.936Z,58.90
2018-11-05T05:37:17.150Z,58.80
2018-11-05T05:42:20.380Z,58.70
2018-11-05T05:47:23.592Z,58.60
2018-11-05T05:52:26.844Z,58.60
2018-11-05T05:57:30.348Z,58.50
2018-11-05T06:02:33.577Z,58.80
2018-11-05T06:07:37.168Z,58.50
2018-11-05T06:12:40.368Z,58.30
2018-11-05T06:17:43.564Z,58.50
2018-11-05T06:22:47.464Z,59.10
2018-11-05T06:27:50.669Z,58.20
2018-11-05T06:32:53.897Z,58.40
2018-11-05T06:37:57.102Z,58.40
2018-11-05T06:43:00.320Z,58.30
2018-11-05T06:48:03.528Z,58.50
2018-11-05T06:53:06.763Z,58.30
2018-11-05T06:58:09.968Z,58.40
2018-11-05T07:03:13.182Z,58.70
2018-11-05T07:08:16.416Z,58.60
2018-11-05T07:13:19.634Z,58.80
2018-11-05T07:18:22.929Z,58.90
2018-11-05T07:23:26.061Z,58.90
2018-11-05T07:28:29.281Z,58.90
2018-11-05T07:33:32.732Z,58.90
2018-11-05T07:38:35.734Z,59.60
2018-11-05T07:43:38.944Z,59.10
2018-11-05T07:48:42.176Z,59.20
2018-11-05T07:53:45.422Z,59.10
2018-11-05T07:58:48.616Z,59.00
2018-11-05T08:03:51.847Z,59.50
2018-11-05T08:08:55.356Z,59.40
2018-11-05T08:13:58.575Z,59.10
2018-11-05T08:19:01.820Z,59.50
2018-11-05T08:24:05.453Z,59.50
2018-11-05T08:29:08.644Z,59.30
2018-11-05T08:34:11.897Z,59.20
2018-11-05T08:39:15.103Z,60.90
2018-11-05T08:44:18.328Z,60.60
2018-11-05T08:49:21.549Z,59.70
2018-11-05T08:54:24.847Z,60.20
2018-11-05T08:59:28.048Z,61.20
2018-11-05T09:04:31.302Z,61.30
2018-11-05T09:09:34.504Z,59.80
2018-11-05T09:14:37.717Z,60.20
2018-11-05T09:19:40.956Z,60.70
2018-11-05T09:24:44.180Z,61.00
2018-11-05T09:29:47.396Z,61.70
2018-11-05T09:34:50.616Z,61.10
2018-11-05T09:39:53.828Z,61.20
2018-11-05T09:44:57.063Z,60.50
2018-11-05T09:50:00.287Z,61.70
2018-11-05T09:55:03.545Z,60.30
2018-11-05T10:00:10.201Z,60.60
2018-11-05T10:05:14.085Z,60.70
2018-11-05T10:10:17.926Z,61.80
2018-11-05T10:15:21.088Z,62.20
2018-11-05T10:20:25.138Z,62.10
2018-11-05T10:25:28.339Z,62.00
2018-11-05T10:30:31.788Z,62.40
2018-11-05T10:35:40.392Z,62.40
2018-11-05T10:40:43.618Z,62.90
2018-11-05T10:45:46.880Z,64.30
2018-11-05T10:50:50.093Z,64.20
2018-11-05T10:55:53.289Z,63.90
2018-11-05T11:01:02.023Z,63.80
2018-11-05T11:06:06.292Z,65.60
2018-11-05T11:11:09.499Z,64.50
2018-11-05T11:16:12.691Z,64.50
2018-11-05T11:21:15.912Z,65.20
2018-11-05T11:26:19.154Z,65.10
2018-11-05T11:31:22.392Z,64.60
2018-11-05T11:36:25.779Z,64.70
2018-11-05T11:41:28.981Z,65.40
2018-11-05T11:46:32.277Z,65.20
2018-11-05T11:51:35.484Z,64.90
2018-11-05T11:56:38.687Z,65.50
2018-11-05T12:01:47.352Z,65.90
2018-11-05T12:06:51.608Z,66.30
2018-11-05T12:11:54.809Z,66.30
2018-11-05T12:16:58.001Z,65.70
2018-11-05T12:22:01.248Z,66.30
2018-11-05T12:27:04.556Z,66.50
2018-11-05T12:32:07.800Z,66.50
2018-11-05T12:37:11.020Z,66.20
2018-11-05T12:42:14.283Z,66.50
2018-11-05T12:47:17.544Z,67.60
2018-11-05T12:52:20.782Z,67.20
2018-11-05T12:57:24.023Z,66.80
2018-11-05T13:02:27.308Z,66.60
2018-11-05T13:07:30.565Z,66.60
2018-11-05T13:12:33.792Z,67.10
2018-11-05T13:17:37.636Z,66.90
2018-11-05T13:22:40.938Z,66.80
2018-11-05T13:27:45.316Z,66.70
2018-11-05T13:32:48.523Z,66.90
2018-11-05T13:37:52.262Z,67.20
2018-11-05T13:42:55.116Z,67.30
2018-11-05T13:47:58.821Z,67.00
2018-11-05T13:53:01.552Z,67.30
2018-11-05T13:58:05.124Z,67.70
2018-11-05T14:03:08.365Z,66.30
2018-11-05T14:08:11.593Z,66.80
2018-11-05T14:13:14.808Z,66.10
2018-11-05T14:18:18.095Z,66.60
2018-11-05T14:23:21.248Z,67.40
2018-11-05T14:28:24.684Z,65.70
2018-11-05T14:33:27.712Z,66.80
2018-11-05T14:38:30.941Z,66.40
2018-11-05T14:43:34.232Z,66.40
2018-11-05T14:48:37.470Z,66.20
2018-11-05T14:53:40.720Z,66.00
2018-11-05T14:58:43.944Z,65.60
2018-11-05T15:03:47.174Z,65.60
2018-11-05T15:08:50.425Z,65.90
2018-11-05T15:13:53.649Z,65.80
2018-11-05T15:18:57.155Z,67.30
2018-11-05T15:24:00.123Z,65.90
2018-11-05T15:29:03.372Z,65.10
2018-11-05T15:34:06.657Z,64.60
2018-11-05T15:39:09.936Z,64.80
2018-11-05T15:44:13.168Z,64.00
2018-11-05T15:49:16.436Z,63.70
2018-11-05T15:54:19.708Z,63.60
2018-11-05T15:59:22.896Z,72.00
2018-11-05T16:04:27.051Z,68.00
2018-11-05T16:09:30.271Z,66.20
2018-11-05T16:14:33.581Z,64.80
2018-11-05T16:19:36.792Z,63.90
2018-11-05T16:24:40.008Z,63.70
2018-11-05T16:29:43.220Z,63.00
2018-11-05T16:34:46.458Z,62.40
2018-11-05T16:39:49.797Z,62.00
2018-11-05T16:44:52.875Z,63.80
2018-11-05T16:49:56.078Z,64.00
2018-11-05T16:54:59.267Z,64.70
2018-11-05T17:00:02.501Z,64.50
2018-11-05T17:05:05.700Z,64.60
2018-11-05T17:10:10.275Z,64.60
2018-11-05T17:15:15.551Z,64.20
2018-11-05T17:20:19.815Z,64.30
2018-11-05T17:25:23.047Z,63.90
2018-11-05T17:30:26.241Z,63.70
2018-11-05T17:35:29.468Z,63.70
2018-11-05T17:40:32.677Z,64.00
2018-11-05T17:45:35.912Z,63.40
2018-11-05T17:50:39.137Z,63.70
2018-11-05T17:55:42.333Z,63.90
2018-11-05T18:00:45.550Z,63.60
2018-11-05T18:05:48.837Z,63.50
2018-11-05T18:10:52.689Z,63.50
2018-11-05T18:15:55.890Z,63.50
2018-11-05T18:20:59.076Z,63.90
2018-11-05T18:26:02.307Z,63.40
2018-11-05T18:31:05.851Z,63.70
2018-11-05T18:36:09.015Z,64.20
2018-11-05T18:41:12.273Z,63.80
2018-11-05T18:46:16.172Z,63.50
2018-11-05T18:51:19.402Z,63.40
2018-11-05T18:56:22.787Z,63.30
2018-11-05T19:01:25.953Z,63.00
2018-11-05T19:06:29.140Z,63.00
2018-11-05T19:11:32.328Z,62.70
2018-11-05T19:16:35.582Z,63.00
2018-11-05T19:21:38.784Z,62.70
2018-11-05T19:26:41.989Z,62.90
2018-11-05T19:31:46.192Z,62.90
2018-11-05T19:36:49.520Z,63.70
2018-11-05T19:41:52.781Z,63.30
2018-11-05T19:46:55.917Z,63.60
2018-11-05T19:51:59.132Z,63.20
2018-11-05T19:57:02.784Z,62.80
2018-11-05T20:02:06.969Z,63.00
2018-11-05T20:07:10.183Z,63.40
2018-11-05T20:12:13.427Z,63.40
2018-11-05T20:17:16.617Z,63.40
2018-11-05T20:22:19.926Z,62.60
2018-11-05T20:27:23.044Z,63.30
2018-11-05T20:32:26.951Z,63.00
2018-11-05T20:37:29.568Z,62.30
2018-11-05T20:42:32.805Z,62.60
2018-11-05T20:47:36.047Z,62.60
2018-11-05T20:52:39.585Z,62.80
2018-11-05T20:57:43.088Z,62.60
2018-11-05T21:02:46.273Z,62.30
2018-11-05T21:07:49.479Z,62.70
2018-11-05T21:12:52.677Z,62.20
2018-11-05T21:17:55.990Z,62.50
2018-11-05T21:22:59.202Z,62.70
2018-11-05T21:28:02.371Z,62.70
2018-11-05T21:33:05.748Z,62.70
2018-11-05T21:38:08.874Z,62.50
2018-11-05T21:43:12.076Z,62.40
2018-11-05T21:48:16.363Z,62.60
2018-11-05T21:53:19.604Z,63.20
2018-11-05T21:58:22.792Z,62.20
2018-11-05T22:03:26.050Z,62.50
2018-11-05T22:08:29.222Z,62.30
2018-11-05T22:13:32.434Z,62.20
2018-11-05T22:18:35.628Z,62.30
2018-11-05T22:23:38.835Z,62.90
2018-11-05T22:28:42.044Z,63.40
2018-11-05T22:33:45.265Z,62.90
2018-11-05T22:38:48.495Z,62.50
2018-11-05T22:43:51.729Z,62.10
2018-11-05T22:48:54.944Z,62.20
2018-11-05T22:53:58.139Z,62.30
2018-11-05T22:59:01.339Z,62.50
2018-11-05T23:04:04.961Z,62.50
2018-11-05T23:09:08.236Z,63.10
2018-11-05T23:14:11.440Z,63.40
2018-11-05T23:19:14.699Z,62.80
2018-11-05T23:24:17.917Z,63.00
2018-11-05T23:29:21.141Z,62.50
2018-11-05T23:34:24.359Z,62.20
2018-11-05T23:39:27.547Z,62.60
2018-11-05T23:44:30.751Z,62.40
2018-11-05T23:49:33.969Z,62.20
2018-11-05T23:54:37.229Z,62.00
2018-11-05T23:59:40.452Z,62.10
